createdAt,value
2018-04-25T00:02:00.572Z,97860.42
2018-04-25T00:04:28.479Z,97860.80
2018-04-25T00:06:57.232Z,97855.37
2018-04-25T00:09:24.792Z,97859.90
2018-04-25T00:11:52.654Z,97861.40
2018-04-25T00:14:20.377Z,97862.89
2018-04-25T00:16:48.600Z,97859.69
2018-04-25T00:19:16.404Z,97862.32
2018-04-25T00:21:44.309Z,97858.41
2018-04-25T00:24:12.733Z,97859.69
2018-04-25T00:26:41.451Z,97855.20
2018-04-25T00:29:09.740Z,97849.74
2018-04-25T00:31:38.645Z,97858.23
2018-04-25T00:34:07.798Z,97854.46
2018-04-25T00:36:36.198Z,97861.00
2018-04-25T00:39:05.589Z,97853.66
2018-04-25T00:41:33.313Z,97850.22
2018-04-25T00:44:01.204Z,97850.78
2018-04-25T00:46:29.333Z,97851.21
2018-04-25T00:48:57.403Z,97858.76
2018-04-25T00:51:25.264Z,97855.83
2018-04-25T00:53:54.750Z,97853.94
2018-04-25T00:56:23.140Z,97846.55
2018-04-25T00:58:50.938Z,97843.52
2018-04-25T01:01:18.868Z,97841.03
2018-04-25T01:03:46.905Z,97844.94
2018-04-25T01:06:15.019Z,97837.69
2018-04-25T01:08:43.720Z,97839.77
2018-04-25T01:11:12.504Z,97836.56
2018-04-25T01:13:40.835Z,97837.37
2018-04-25T01:16:10.312Z,97836.61
2018-04-25T01:18:38.938Z,97832.67
2018-04-25T01:21:06.853Z,97830.71
2018-04-25T01:23:34.827Z,97830.34
2018-04-25T01:26:06.816Z,97831.31
2018-04-25T01:28:41.578Z,97823.83
2018-04-25T01:31:11.308Z,97821.67
2018-04-25T01:33:41.312Z,97815.94
2018-04-25T01:36:21.650Z,97818.10
2018-04-25T01:38:50.647Z,97816.14
2018-04-25T01:41:19.049Z,97818.05
2018-04-25T01:43:49.998Z,97822.71
2018-04-25T01:46:34.807Z,97814.25
2018-04-25T01:49:15.630Z,97816.89
2018-04-25T01:51:55.244Z,97811.55
2018-04-25T01:54:35.480Z,97813.08
2018-04-25T01:57:16.878Z,97809.14
2018-04-25T01:59:57.178Z,97809.39
2018-04-25T02:02:24.930Z,97801.23
2018-04-25T02:04:53.368Z,97799.05
2018-04-25T02:07:22.703Z,97797.92
2018-04-25T02:09:50.717Z,97793.15
2018-04-25T02:12:19.034Z,97793.28
2018-04-25T02:14:46.799Z,97793.79
2018-04-25T02:17:14.253Z,97789.05
2018-04-25T02:19:43.062Z,97790.07
2018-04-25T02:22:10.453Z,97788.44
2018-04-25T02:24:38.694Z,97784.91
2018-04-25T02:27:07.402Z,97793.34
2018-04-25T02:29:34.661Z,97789.94
2018-04-25T02:32:04.046Z,97784.20
2018-04-25T02:34:31.914Z,97786.86
2018-04-25T02:37:00.028Z,97783.26
2018-04-25T02:39:27.680Z,97782.80
2018-04-25T02:41:54.909Z,97779.84
2018-04-25T02:44:22.517Z,97783.05
2018-04-25T02:46:50.503Z,97780.05
2018-04-25T02:49:18.950Z,97782.22
2018-04-25T02:51:46.984Z,97786.55
2018-04-25T02:54:14.331Z,97779.66
2018-04-25T02:56:42.739Z,97785.63
2018-04-25T02:59:10.089Z,97778.30
2018-04-25T03:01:37.884Z,97778.74
2018-04-25T03:04:05.527Z,97777.71
2018-04-25T03:06:32.878Z,97767.06
2018-04-25T03:09:00.513Z,97767.22
2018-04-25T03:11:28.206Z,97772.42
2018-04-25T03:13:55.656Z,97770.97
2018-04-25T03:16:23.754Z,97767.97
2018-04-25T03:18:51.892Z,97779.41
2018-04-25T03:21:21.805Z,97777.03
2018-04-25T03:23:49.564Z,97766.09
2018-04-25T03:26:16.959Z,97767.39
2018-04-25T03:28:44.435Z,97758.89
2018-04-25T03:31:12.500Z,97763.26
2018-04-25T03:33:41.063Z,97764.68
2018-04-25T03:36:08.348Z,97764.21
2018-04-25T03:38:35.933Z,97763.03
2018-04-25T03:41:04.804Z,97763.39
2018-04-25T03:43:32.390Z,97757.64
2018-04-25T03:46:00.399Z,97771.73
2018-04-25T03:48:29.658Z,97768.56
2018-04-25T03:50:57.025Z,97771.17
2018-04-25T03:53:25.105Z,97762.11
2018-04-25T03:55:52.966Z,97766.83
2018-04-25T03:58:20.848Z,97772.69
2018-04-25T04:00:48.067Z,97772.70
2018-04-25T04:03:16.013Z,97765.67
2018-04-25T04:05:44.221Z,97768.45
2018-04-25T04:08:11.463Z,97759.98
2018-04-25T04:10:40.178Z,97767.35
2018-04-25T04:13:10.084Z,97766.30
2018-04-25T04:15:38.378Z,97758.58
2018-04-25T04:18:06.348Z,97761.05
2018-04-25T04:20:34.049Z,97758.61
2018-04-25T04:23:01.824Z,97756.02
2018-04-25T04:25:31.559Z,97757.51
2018-04-25T04:27:59.495Z,97746.36
2018-04-25T04:30:27.481Z,97751.66
2018-04-25T04:32:55.063Z,97740.72
2018-04-25T04:35:23.254Z,97744.75
2018-04-25T04:37:51.098Z,97743.25
2018-04-25T04:40:18.859Z,97748.34
2018-04-25T04:42:47.391Z,97746.56
2018-04-25T04:45:15.621Z,97742.57
2018-04-25T04:47:43.316Z,97748.75
2018-04-25T04:50:12.029Z,97745.08
2018-04-25T04:52:39.819Z,97739.23
2018-04-25T04:55:07.786Z,97733.73
2018-04-25T04:57:36.254Z,97737.66
2018-04-25T05:00:04.460Z,97741.59
2018-04-25T05:02:32.390Z,97740.97
2018-04-25T05:05:00.711Z,97736.75
2018-04-25T05:07:29.520Z,97739.17
2018-04-25T05:09:57.645Z,97744.47
2018-04-25T05:12:25.252Z,97734.70
2018-04-25T05:14:53.688Z,97736.91
2018-04-25T05:17:21.845Z,97731.41
2018-04-25T05:19:49.909Z,97729.27
2018-04-25T05:22:18.250Z,97722.30
2018-04-25T05:24:46.324Z,97723.22
2018-04-25T05:27:14.259Z,97731.77
2018-04-25T05:29:42.667Z,97728.37
2018-04-25T05:32:11.431Z,97735.33
2018-04-25T05:34:39.539Z,97734.83
2018-04-25T05:37:08.627Z,97738.97
2018-04-25T05:39:36.776Z,97737.00
2018-04-25T05:42:04.946Z,97748.89
2018-04-25T05:44:33.605Z,97750.75
2018-04-25T05:47:01.829Z,97744.50
2018-04-25T05:49:29.764Z,97739.30
2018-04-25T05:51:57.601Z,97736.92
2018-04-25T05:54:26.610Z,97734.12
2018-04-25T05:56:55.409Z,97736.56
2018-04-25T05:59:23.985Z,97739.23
2018-04-25T06:01:53.119Z,97741.50
2018-04-25T06:04:21.523Z,97740.44
2018-04-25T06:06:49.889Z,97746.18
2018-04-25T06:09:18.259Z,97746.69
2018-04-25T06:11:46.501Z,97746.48
2018-04-25T06:14:15.089Z,97740.81
2018-04-25T06:16:43.338Z,97740.73
2018-04-25T06:19:11.356Z,97758.27
2018-04-25T06:21:39.272Z,97757.70
2018-04-25T06:24:07.444Z,97752.14
2018-04-25T06:26:35.568Z,97747.58
2018-04-25T06:29:03.211Z,97749.52
2018-04-25T06:31:31.802Z,97747.31
2018-04-25T06:33:59.767Z,97741.46
2018-04-25T06:36:27.714Z,97744.45
2018-04-25T06:38:55.330Z,97741.86
2018-04-25T06:41:23.382Z,97745.77
2018-04-25T06:43:51.624Z,97740.51
2018-04-25T06:46:19.432Z,97743.86
2018-04-25T06:48:47.272Z,97742.53
2018-04-25T06:51:15.885Z,97739.80
2018-04-25T06:53:43.996Z,97740.05
2018-04-25T06:56:12.954Z,97744.05
2018-04-25T06:58:45.711Z,97733.53
2018-04-25T07:01:14.049Z,97738.83
2018-04-25T07:03:42.101Z,97741.55
2018-04-25T07:06:09.835Z,97749.50
2018-04-25T07:08:37.760Z,97742.73
2018-04-25T07:11:05.534Z,97740.17
2018-04-25T07:13:33.724Z,97737.91
2018-04-25T07:16:01.894Z,97738.92
2018-04-25T07:18:29.821Z,97738.45
2018-04-25T07:20:58.541Z,97741.09
2018-04-25T07:23:27.246Z,97730.88
2018-04-25T07:25:55.110Z,97739.91
2018-04-25T07:28:23.340Z,97745.62
2018-04-25T07:30:51.754Z,97738.47
2018-04-25T07:33:20.165Z,97750.96
2018-04-25T07:35:48.222Z,97743.70
2018-04-25T07:38:16.607Z,97748.36
2018-04-25T07:40:44.330Z,97742.36
2018-04-25T07:43:12.170Z,97746.55
2018-04-25T07:45:40.437Z,97740.67
2018-04-25T07:48:08.375Z,97753.03
2018-04-25T07:50:36.606Z,97752.78
2018-04-25T07:53:04.795Z,97752.30
2018-04-25T07:55:34.408Z,97751.02
2018-04-25T07:58:02.521Z,97751.20
2018-04-25T08:00:31.692Z,97750.08
2018-04-25T08:02:59.666Z,97741.92
2018-04-25T08:05:28.202Z,97742.29
2018-04-25T08:07:56.625Z,97736.84
2018-04-25T08:10:24.491Z,97736.02
2018-04-25T08:13:04.570Z,97737.82
2018-04-25T08:15:44.875Z,97737.06
2018-04-25T08:18:26.124Z,97737.97
2018-04-25T08:23:54.197Z,97734.41
2018-04-25T08:26:22.625Z,97741.18
2018-04-25T08:28:51.060Z,97738.37
2018-04-25T08:31:22.491Z,97740.77
2018-04-25T08:33:52.012Z,97742.33
2018-04-25T08:36:21.365Z,97741.35
2018-04-25T08:38:50.540Z,97739.64
2018-04-25T08:41:18.874Z,97732.89
2018-04-25T08:43:46.711Z,97729.84
2018-04-25T08:46:15.529Z,97714.59
2018-04-25T08:48:44.101Z,97726.44
2018-04-25T08:51:12.468Z,97732.48
2018-04-25T08:53:41.323Z,97727.28
2018-04-25T08:56:08.861Z,97731.38
2018-04-25T08:58:37.773Z,97720.73
2018-04-25T09:01:06.221Z,97745.19
2018-04-25T09:03:34.327Z,97721.53
2018-04-25T09:06:02.286Z,97736.64
2018-04-25T09:08:30.695Z,97740.73
2018-04-25T09:10:59.820Z,97730.77
2018-04-25T09:13:28.754Z,97725.59
2018-04-25T09:15:57.296Z,97734.86
2018-04-25T09:18:24.860Z,97727.30
2018-04-25T09:20:53.284Z,97728.15
2018-04-25T09:23:20.876Z,97725.57
2018-04-25T09:25:53.416Z,97724.14
2018-04-25T09:28:21.216Z,97735.77
2018-04-25T09:30:49.760Z,97732.02
2018-04-25T09:33:19.232Z,97738.34
2018-04-25T09:35:48.316Z,97732.39
2018-04-25T09:38:16.935Z,97725.57
2018-04-25T09:40:45.040Z,97729.91
2018-04-25T09:43:13.132Z,97718.38
2018-04-25T09:45:40.810Z,97729.05
2018-04-25T09:48:08.417Z,97725.44
2018-04-25T09:50:37.306Z,97729.09
2018-04-25T09:53:05.796Z,97734.23
2018-04-25T09:55:34.081Z,97729.29
2018-04-25T09:58:01.942Z,97729.47
2018-04-25T10:00:35.252Z,97738.02
2018-04-25T10:03:05.109Z,97712.84
2018-04-25T10:05:32.998Z,97724.83
2018-04-25T10:08:00.858Z,97728.41
2018-04-25T10:10:29.161Z,97729.97
2018-04-25T10:12:57.438Z,97722.00
2018-04-25T10:15:26.818Z,97716.61
2018-04-25T10:17:56.016Z,97722.33
2018-04-25T10:20:24.687Z,97706.14
2018-04-25T10:22:52.997Z,97720.30
2018-04-25T10:25:20.762Z,97720.63
2018-04-25T10:27:48.552Z,97717.91
2018-04-25T10:30:17.987Z,97715.36
2018-04-25T10:32:47.369Z,97722.34
2018-04-25T10:35:15.253Z,97717.94
2018-04-25T10:37:43.606Z,97728.97
2018-04-25T10:40:11.686Z,97730.12
2018-04-25T10:42:40.228Z,97735.23
2018-04-25T10:45:08.467Z,97728.03
2018-04-25T10:47:37.186Z,97721.31
2018-04-25T10:50:06.277Z,97715.94
2018-04-25T10:52:34.233Z,97726.39
2018-04-25T10:55:02.492Z,97710.77
2018-04-25T10:57:31.234Z,97715.25
2018-04-25T11:00:00.777Z,97707.21
2018-04-25T11:02:29.747Z,97705.00
2018-04-25T11:04:58.666Z,97699.83
2018-04-25T11:07:27.100Z,97703.62
2018-04-25T11:09:55.124Z,97697.48
2018-04-25T11:12:24.212Z,97690.17
2018-04-25T11:14:53.071Z,97692.99
2018-04-25T11:17:21.596Z,97691.03
2018-04-25T11:19:50.554Z,97695.41
2018-04-25T11:22:19.016Z,97689.16
2018-04-25T11:24:47.482Z,97692.89
2018-04-25T11:27:19.877Z,97688.45
2018-04-25T11:29:47.743Z,97701.75
2018-04-25T11:32:16.283Z,97692.80
2018-04-25T11:34:44.561Z,97689.20
2018-04-25T11:37:12.550Z,97685.64
2018-04-25T11:39:40.441Z,97686.42
2018-04-25T11:42:08.076Z,97699.03
2018-04-25T11:44:36.168Z,97699.11
2018-04-25T11:47:04.059Z,97704.52
2018-04-25T11:49:32.342Z,97706.55
2018-04-25T11:52:00.061Z,97704.19
2018-04-25T11:54:28.378Z,97717.41
2018-04-25T11:56:56.893Z,97713.27
2018-04-25T11:59:25.178Z,97711.62
2018-04-25T12:01:53.510Z,97709.22
2018-04-25T12:04:21.344Z,97710.11
2018-04-25T12:06:50.133Z,97705.16
2018-04-25T12:09:17.751Z,97716.41
2018-04-25T12:11:46.636Z,97712.97
2018-04-25T12:14:14.879Z,97724.13
2018-04-25T12:16:43.005Z,97718.19
2018-04-25T12:19:10.878Z,97724.92
2018-04-25T12:21:39.341Z,97708.06
2018-04-25T12:24:07.581Z,97728.63
2018-04-25T12:26:36.682Z,97727.18
2018-04-25T12:29:04.413Z,97721.94
2018-04-25T12:31:32.943Z,97727.18
2018-04-25T12:34:00.927Z,97725.98
2018-04-25T12:36:29.691Z,97716.67
2018-04-25T12:38:58.003Z,97717.55
2018-04-25T12:41:25.575Z,97718.54
2018-04-25T12:43:53.301Z,97727.27
2018-04-25T12:46:20.982Z,97714.77
2018-04-25T12:48:49.447Z,97723.88
2018-04-25T12:51:17.866Z,97728.13
2018-04-25T12:53:46.359Z,97716.05
2018-04-25T12:56:15.804Z,97714.42
2018-04-25T12:58:44.847Z,97713.13
2018-04-25T13:01:12.754Z,97708.88
2018-04-25T13:03:41.141Z,97708.14
2018-04-25T13:06:09.408Z,97703.24
2018-04-25T13:08:36.948Z,97706.72
2018-04-25T13:11:05.972Z,97714.69
2018-04-25T13:13:34.107Z,97700.46
2018-04-25T13:16:02.474Z,97711.73
2018-04-25T13:18:30.549Z,97699.66
2018-04-25T13:20:59.791Z,97700.09
2018-04-25T13:23:27.798Z,97691.73
2018-04-25T13:25:56.050Z,97699.23
2018-04-25T13:28:23.763Z,97690.63
2018-04-25T13:30:51.763Z,97688.70
2018-04-25T13:33:19.982Z,97694.19
2018-04-25T13:35:48.562Z,97693.95
2018-04-25T13:38:16.622Z,97692.66
2018-04-25T13:40:44.154Z,97695.06
2018-04-25T13:43:12.568Z,97688.00
2018-04-25T13:45:40.702Z,97697.51
2018-04-25T13:48:08.346Z,97697.47
2018-04-25T13:50:37.029Z,97694.13
2018-04-25T13:53:05.668Z,97698.30
2018-04-25T13:55:34.562Z,97694.45
2018-04-25T13:58:02.783Z,97689.00
2018-04-25T14:00:31.450Z,97699.36
2018-04-25T14:02:59.393Z,97693.03
2018-04-25T14:05:27.841Z,97690.81
2018-04-25T14:07:55.567Z,97693.11
2018-04-25T14:10:23.807Z,97677.10
2018-04-25T14:12:51.956Z,97678.95
2018-04-25T14:15:19.867Z,97675.57
2018-04-25T14:17:47.586Z,97685.45
2018-04-25T14:20:15.423Z,97685.34
2018-04-25T14:22:44.173Z,97688.70
2018-04-25T14:25:12.167Z,97688.75
2018-04-25T14:27:40.399Z,97682.82
2018-04-25T14:30:08.681Z,97691.17
2018-04-25T14:32:36.712Z,97692.45
2018-04-25T14:35:04.768Z,97687.38
2018-04-25T14:37:32.669Z,97694.11
2018-04-25T14:40:00.387Z,97702.22
2018-04-25T14:42:28.377Z,97705.77
2018-04-25T14:44:57.059Z,97706.74
2018-04-25T14:47:25.819Z,97699.24
2018-04-25T14:49:54.097Z,97697.89
2018-04-25T14:52:22.483Z,97700.04
2018-04-25T14:54:50.880Z,97702.02
2018-04-25T14:57:18.533Z,97701.22
2018-04-25T14:59:47.197Z,97701.83
2018-04-25T15:02:15.262Z,97698.27
2018-04-25T15:04:43.264Z,97707.86
2018-04-25T15:07:11.093Z,97706.11
2018-04-25T15:09:38.959Z,97703.11
2018-04-25T15:12:06.668Z,97688.55
2018-04-25T15:14:34.863Z,97694.58
2018-04-25T15:17:02.794Z,97708.12
2018-04-25T15:19:30.638Z,97697.24
2018-04-25T15:21:58.672Z,97702.52
2018-04-25T15:24:27.112Z,97700.57
2018-04-25T15:26:55.608Z,97707.12
2018-04-25T15:29:23.604Z,97713.15
2018-04-25T15:31:51.951Z,97710.89
2018-04-25T15:34:19.601Z,97704.63
2018-04-25T15:36:47.811Z,97705.95
2018-04-25T15:39:15.348Z,97700.70
2018-04-25T15:41:43.601Z,97703.41
2018-04-25T15:44:11.192Z,97699.53
2018-04-25T15:46:39.675Z,97699.30
2018-04-25T15:49:07.752Z,97702.77
2018-04-25T15:51:36.103Z,97691.26
2018-04-25T15:54:04.407Z,97697.75
2018-04-25T15:56:33.576Z,97686.76
2018-04-25T15:59:01.988Z,97694.27
2018-04-25T16:01:30.268Z,97692.56
2018-04-25T16:03:58.549Z,97692.54
2018-04-25T16:06:26.099Z,97701.85
2018-04-25T16:08:54.048Z,97694.61
2018-04-25T16:11:21.813Z,97702.41
2018-04-25T16:13:50.173Z,97692.41
2018-04-25T16:16:18.323Z,97689.67
2018-04-25T16:18:46.899Z,97688.31
2018-04-25T16:21:14.799Z,97686.24
2018-04-25T16:23:43.071Z,97695.82
2018-04-25T16:26:11.178Z,97687.72
2018-04-25T16:28:38.984Z,97683.87
2018-04-25T16:31:07.035Z,97682.74
2018-04-25T16:33:35.375Z,97682.59
2018-04-25T16:36:03.354Z,97682.78
2018-04-25T16:38:31.112Z,97674.77
2018-04-25T16:40:59.019Z,97674.28
2018-04-25T16:43:27.285Z,97673.75
2018-04-25T16:45:55.445Z,97676.06
2018-04-25T16:48:23.210Z,97677.94
2018-04-25T16:50:51.150Z,97677.14
2018-04-25T16:53:19.930Z,97664.83
2018-04-25T16:55:48.123Z,97664.98
2018-04-25T16:58:16.436Z,97672.00
2018-04-25T17:00:44.788Z,97670.34
2018-04-25T17:03:13.351Z,97679.38
2018-04-25T17:05:40.994Z,97674.24
2018-04-25T17:08:08.729Z,97668.75
2018-04-25T17:10:37.511Z,97664.56
2018-04-25T17:13:06.075Z,97675.27
2018-04-25T17:15:34.550Z,97679.25
2018-04-25T17:18:02.294Z,97683.74
2018-04-25T17:20:30.021Z,97686.48
2018-04-25T17:22:58.072Z,97685.35
2018-04-25T17:25:27.334Z,97683.69
2018-04-25T17:27:56.340Z,97684.64
2018-04-25T17:30:25.074Z,97687.11
2018-04-25T17:32:53.334Z,97675.51
2018-04-25T17:35:21.925Z,97683.30
2018-04-25T17:37:50.976Z,97684.29
2018-04-25T17:40:18.802Z,97683.98
2018-04-25T17:42:47.541Z,97685.23
2018-04-25T17:45:15.816Z,97686.98
2018-04-25T17:47:43.510Z,97694.64
2018-04-25T17:50:11.498Z,97684.58
2018-04-25T17:52:40.011Z,97692.34
2018-04-25T17:55:08.352Z,97691.02
2018-04-25T17:57:36.697Z,97695.98
2018-04-25T18:00:04.858Z,97703.27
2018-04-25T18:02:32.868Z,97702.31
2018-04-25T18:05:01.220Z,97702.82
2018-04-25T18:07:28.976Z,97710.90
2018-04-25T18:09:56.498Z,97707.87
2018-04-25T18:12:25.624Z,97713.87
2018-04-25T18:14:53.300Z,97713.58
2018-04-25T18:17:21.005Z,97722.03
2018-04-25T18:19:48.946Z,97712.09
2018-04-25T18:22:17.179Z,97722.54
2018-04-25T18:24:44.786Z,97730.05
2018-04-25T18:27:12.480Z,97732.53
2018-04-25T18:29:40.411Z,97733.67
2018-04-25T18:32:08.055Z,97737.52
2018-04-25T18:34:35.914Z,97742.63
2018-04-25T18:37:08.151Z,97748.12
2018-04-25T18:39:36.682Z,97752.95
2018-04-25T18:42:05.765Z,97764.56
2018-04-25T18:44:33.649Z,97765.65
2018-04-25T18:47:01.947Z,97761.14
2018-04-25T18:49:29.954Z,97763.59
2018-04-25T18:51:58.250Z,97771.74
2018-04-25T18:54:26.611Z,97769.98
2018-04-25T18:56:54.800Z,97774.27
2018-04-25T18:59:23.694Z,97779.15
2018-04-25T19:01:52.294Z,97785.51
2018-04-25T19:04:21.240Z,97787.66
2018-04-25T19:06:49.615Z,97794.00
2018-04-25T19:09:18.730Z,97791.73
2018-04-25T19:11:47.190Z,97797.77
2018-04-25T19:14:15.779Z,97801.23
2018-04-25T19:16:44.268Z,97798.08
2018-04-25T19:19:14.321Z,97799.02
2018-04-25T19:21:42.979Z,97803.19
2018-04-25T19:24:14.376Z,97806.20
2018-04-25T19:26:43.131Z,97803.63
2018-04-25T19:29:11.493Z,97802.02
2018-04-25T19:31:39.608Z,97811.17
2018-04-25T19:34:08.265Z,97814.41
2018-04-25T19:36:38.065Z,97822.42
2018-04-25T19:39:06.395Z,97823.03
2018-04-25T19:41:35.469Z,97827.30
2018-04-25T19:44:03.721Z,97833.02
2018-04-25T19:46:34.019Z,97836.14
2018-04-25T19:49:01.896Z,97836.97
2018-04-25T19:51:30.399Z,97828.11
2018-04-25T19:53:59.015Z,97834.47
2018-04-25T19:56:27.233Z,97849.88
2018-04-25T19:58:55.944Z,97860.96
2018-04-25T20:01:24.860Z,97858.02
2018-04-25T20:03:52.905Z,97864.33
2018-04-25T20:06:21.873Z,97863.09
2018-04-25T20:08:50.164Z,97869.33
2018-04-25T20:11:20.511Z,97869.76
2018-04-25T20:13:48.902Z,97877.44
2018-04-25T20:16:18.732Z,97882.48
2018-04-25T20:18:47.421Z,97887.89
2018-04-25T20:21:16.390Z,97876.76
2018-04-25T20:23:44.771Z,97884.38
2018-04-25T20:26:12.911Z,97890.99
2018-04-25T20:28:42.950Z,97900.58
2018-04-25T20:31:11.680Z,97894.88
2018-04-25T20:33:40.327Z,97899.21
2018-04-25T20:36:08.383Z,97902.17
2018-04-25T20:38:37.744Z,97897.13
2018-04-25T20:41:06.451Z,97894.88
2018-04-25T20:43:35.206Z,97897.95
2018-04-25T20:46:04.007Z,97900.17
2018-04-25T20:48:34.498Z,97904.16
2018-04-25T20:51:02.997Z,97902.59
2018-04-25T20:53:31.025Z,97912.44
2018-04-25T20:55:59.167Z,97912.84
2018-04-25T20:58:29.759Z,97914.95
2018-04-25T21:01:04.641Z,97920.78
2018-04-25T21:03:33.435Z,97917.89
2018-04-25T21:06:01.572Z,97917.44
2018-04-25T21:08:30.366Z,97915.42
2018-04-25T21:11:00.214Z,97914.56
2018-04-25T21:13:28.081Z,97919.76
2018-04-25T21:15:56.460Z,97921.35
2018-04-25T21:18:24.571Z,97926.70
2018-04-25T21:20:52.817Z,97922.38
2018-04-25T21:23:21.061Z,97920.91
2018-04-25T21:25:49.014Z,97917.25
2018-04-25T21:28:18.029Z,97921.56
2018-04-25T21:30:45.930Z,97921.52
2018-04-25T21:33:13.740Z,97926.77
2018-04-25T21:35:41.454Z,97923.47
2018-04-25T21:38:10.064Z,97933.78
2018-04-25T21:40:37.875Z,97934.00
2018-04-25T21:43:06.258Z,97933.42
2018-04-25T21:45:33.975Z,97933.04
2018-04-25T21:48:01.662Z,97935.83
2018-04-25T21:50:29.950Z,97933.87
2018-04-25T21:52:57.600Z,97933.14
2018-04-25T21:55:25.816Z,97938.38
2018-04-25T21:57:53.871Z,97934.92
2018-04-25T22:00:21.611Z,97948.44
2018-04-25T22:02:49.966Z,97953.04
2018-04-25T22:05:18.196Z,97955.83
2018-04-25T22:07:46.262Z,97956.67
2018-04-25T22:10:14.122Z,97960.03
2018-04-25T22:12:42.096Z,97959.73
2018-04-25T22:15:10.742Z,97954.90
2018-04-25T22:17:38.549Z,97953.94
2018-04-25T22:20:06.290Z,97954.98
2018-04-25T22:22:34.452Z,97960.25
2018-04-25T22:25:03.202Z,97955.20
2018-04-25T22:27:31.082Z,97967.56
2018-04-25T22:29:58.837Z,97976.67
2018-04-25T22:32:26.743Z,97986.75
2018-04-25T22:34:54.425Z,97981.11
2018-04-25T22:37:22.569Z,97980.00
2018-04-25T22:39:50.448Z,97991.99
2018-04-25T22:42:18.352Z,98002.26
2018-04-25T22:44:46.254Z,98003.16
2018-04-25T22:47:14.274Z,98000.91
2018-04-25T22:49:42.064Z,98003.89
2018-04-25T22:52:09.915Z,98010.61
2018-04-25T22:54:37.776Z,98013.58
2018-04-25T22:57:05.646Z,98021.92
2018-04-25T22:59:33.719Z,98033.05
2018-04-25T23:02:01.337Z,98038.69
2018-04-25T23:04:30.165Z,98039.80
2018-04-25T23:06:58.671Z,98051.42
2018-04-25T23:09:26.944Z,98059.73
2018-04-25T23:11:55.695Z,98065.63
2018-04-25T23:14:23.730Z,98054.08
2018-04-25T23:16:51.541Z,98052.69
2018-04-25T23:19:19.620Z,98060.27
2018-04-25T23:21:47.650Z,98045.52
2018-04-25T23:24:15.285Z,98049.10
2018-04-25T23:26:43.836Z,98046.86
2018-04-25T23:29:12.085Z,98037.40
2018-04-25T23:31:40.280Z,98032.86
2018-04-25T23:34:08.392Z,98037.48
2018-04-25T23:36:40.010Z,98029.73
2018-04-25T23:39:07.776Z,98032.05
2018-04-25T23:41:36.461Z,98027.89
2018-04-25T23:44:04.441Z,98024.22
2018-04-25T23:46:32.752Z,98020.19
2018-04-25T23:49:00.711Z,98025.73
2018-04-25T23:51:28.250Z,98025.73
2018-04-25T23:53:56.291Z,98018.45
2018-04-25T23:56:25.346Z,98032.81
2018-04-25T23:58:53.223Z,98024.74
